sensor_id;sensor_type;location;lat;lon;timestamp;pressure;altitude;pressure_sealevel;temperature;humidity
18819;BME280;9537;45.594;9.294;2023-04-01T00:00:32;98567.22;;;10.21;77.05
18819;BME280;9537;45.594;9.294;2023-04-01T00:01:33;98569.13;;;10.27;76.84
18819;BME280;9537;45.594;9.294;2023-04-01T00:02:35;98561.34;;;10.26;76.36
18819;BME280;9537;45.594;9.294;2023-04-01T00:03:36;98573.50;;;10.20;75.77
18819;BME280;9537;45.594;9.294;2023-04-01T00:04:38;98572.47;;;10.14;75.52
18819;BME280;9537;45.594;9.294;2023-04-01T00:05:39;98565.97;;;10.10;75.18
18819;BME280;9537;45.594;9.294;2023-04-01T00:06:41;98561.09;;;10.07;75.06
18819;BME280;9537;45.594;9.294;2023-04-01T00:07:44;98561.09;;;10.14;75.91
18819;BME280;9537;45.594;9.294;2023-04-01T00:08:46;98552.78;;;10.17;76.59
18819;BME280;9537;45.594;9.294;2023-04-01T00:09:48;98546.94;;;10.22;76.80
18819;BME280;9537;45.594;9.294;2023-04-01T00:10:50;98547.34;;;10.25;77.15
18819;BME280;9537;45.594;9.294;2023-04-01T00:11:53;98536.78;;;10.25;77.77
18819;BME280;9537;45.594;9.294;2023-04-01T00:12:54;98538.41;;;10.26;78.04
18819;BME280;9537;45.594;9.294;2023-04-01T00:13:56;98542.50;;;10.29;78.38
18819;BME280;9537;45.594;9.294;2023-04-01T00:14:57;98536.44;;;10.28;78.46
18819;BME280;9537;45.594;9.294;2023-04-01T00:15:59;98543.72;;;10.33;78.15
18819;BME280;9537;45.594;9.294;2023-04-01T00:17:02;98552.66;;;10.32;77.57
18819;BME280;9537;45.594;9.294;2023-04-01T00:18:04;98545.53;;;10.26;76.12
18819;BME280;9537;45.594;9.294;2023-04-01T00:19:05;98546.53;;;10.25;75.51
18819;BME280;9537;45.594;9.294;2023-04-01T00:20:08;98540.41;;;10.24;75.35
18819;BME280;9537;45.594;9.294;2023-04-01T00:21:09;98547.53;;;10.24;75.22
18819;BME280;9537;45.594;9.294;2023-04-01T00:22:11;98549.94;;;10.19;74.30
18819;BME280;9537;45.594;9.294;2023-04-01T00:23:14;98549.34;;;10.17;73.92
18819;BME280;9537;45.594;9.294;2023-04-01T00:24:16;98545.69;;;10.18;74.26
18819;BME280;9537;45.594;9.294;2023-04-01T00:25:19;98543.66;;;10.20;73.43
18819;BME280;9537;45.594;9.294;2023-04-01T00:26:20;98543.47;;;10.21;72.83
18819;BME280;9537;45.594;9.294;2023-04-01T00:27:22;98542.47;;;10.22;73.10
18819;BME280;9537;45.594;9.294;2023-04-01T00:28:23;98542.66;;;10.21;73.50
18819;BME280;9537;45.594;9.294;2023-04-01T00:29:25;98544.53;;;10.27;73.12
18819;BME280;9537;45.594;9.294;2023-04-01T00:30:29;98539.25;;;10.27;73.57
18819;BME280;9537;45.594;9.294;2023-04-01T00:31:31;98542.06;;;10.25;74.34
18819;BME280;9537;45.594;9.294;2023-04-01T00:32:32;98532.50;;;10.24;74.68
18819;BME280;9537;45.594;9.294;2023-04-01T00:33:34;98536.38;;;10.22;74.90
18819;BME280;9537;45.594;9.294;2023-04-01T00:34:36;98541.66;;;10.22;75.01
18819;BME280;9537;45.594;9.294;2023-04-01T00:35:38;98525.00;;;10.21;74.84
18819;BME280;9537;45.594;9.294;2023-04-01T00:36:39;98529.47;;;10.21;74.57
18819;BME280;9537;45.594;9.294;2023-04-01T00:37:41;98534.34;;;10.24;74.33
18819;BME280;9537;45.594;9.294;2023-04-01T00:38:44;98522.16;;;10.23;74.38
18819;BME280;9537;45.594;9.294;2023-04-01T00:39:46;98525.22;;;10.26;73.84
18819;BME280;9537;45.594;9.294;2023-04-01T00:40:47;98523.41;;;10.27;73.02
18819;BME280;9537;45.594;9.294;2023-04-01T00:41:49;98523.41;;;10.27;71.69
18819;BME280;9537;45.594;9.294;2023-04-01T00:42:50;98518.69;;;10.15;70.28
18819;BME280;9537;45.594;9.294;2023-04-01T00:43:52;98519.91;;;10.13;70.99
18819;BME280;9537;45.594;9.294;2023-04-01T00:44:54;98520.91;;;10.12;70.96
18819;BME280;9537;45.594;9.294;2023-04-01T00:45:57;98523.31;;;10.07;71.19
18819;BME280;9537;45.594;9.294;2023-04-01T00:46:59;98522.50;;;10.06;70.99
18819;BME280;9537;45.594;9.294;2023-04-01T00:48:04;98524.56;;;10.11;71.47
18819;BME280;9537;45.594;9.294;2023-04-01T00:49:06;98520.50;;;10.15;71.63
18819;BME280;9537;45.594;9.294;2023-04-01T00:50:09;98520.91;;;10.12;71.25
18819;BME280;9537;45.594;9.294;2023-04-01T00:51:14;98505.69;;;10.07;71.58
18819;BME280;9537;45.594;9.294;2023-04-01T00:52:19;98518.66;;;10.09;71.96
18819;BME280;9537;45.594;9.294;2023-04-01T00:53:23;98514.41;;;10.08;72.08
18819;BME280;9537;45.594;9.294;2023-04-01T00:54:29;98514.56;;;10.00;72.38
18819;BME280;9537;45.594;9.294;2023-04-01T00:55:33;98511.69;;;9.88;73.44
18819;BME280;9537;45.594;9.294;2023-04-01T00:56:37;98513.69;;;9.86;73.59
18819;BME280;9537;45.594;9.294;2023-04-01T00:57:42;98515.50;;;9.79;73.30
18819;BME280;9537;45.594;9.294;2023-04-01T00:58:48;98511.28;;;9.84;73.27
18819;BME280;9537;45.594;9.294;2023-04-01T00:59:54;98510.25;;;9.85;72.82
18819;BME280;9537;45.594;9.294;2023-04-01T01:00:56;98505.78;;;9.86;73.29
18819;BME280;9537;45.594;9.294;2023-04-01T01:02:02;98511.63;;;9.81;74.19
18819;BME280;9537;45.594;9.294;2023-04-01T01:03:04;98514.66;;;9.78;74.79
18819;BME280;9537;45.594;9.294;2023-04-01T01:04:21;98509.78;;;9.75;74.55
18819;BME280;9537;45.594;9.294;2023-04-01T01:05:29;98508.16;;;9.74;73.39
18819;BME280;9537;45.594;9.294;2023-04-01T01:06:40;98504.66;;;9.67;72.49
18819;BME280;9537;45.594;9.294;2023-04-01T01:07:48;98507.25;;;9.54;72.34
18819;BME280;9537;45.594;9.294;2023-04-01T01:10:35;98507.66;;;9.57;73.12
18819;BME280;9537;45.594;9.294;2023-04-01T01:11:41;98494.69;;;9.56;73.04
18819;BME280;9537;45.594;9.294;2023-04-01T01:12:45;98500.97;;;9.55;72.91
18819;BME280;9537;45.594;9.294;2023-04-01T01:13:56;98506.63;;;9.52;73.56
18819;BME280;9537;45.594;9.294;2023-04-01T01:15:04;98505.56;;;9.46;72.65
18819;BME280;9537;45.594;9.294;2023-04-01T01:16:12;98512.84;;;9.44;72.64
18819;BME280;9537;45.594;9.294;2023-04-01T01:17:22;98519.53;;;9.40;72.32
18819;BME280;9537;45.594;9.294;2023-04-01T01:18:33;98514.25;;;9.40;73.07
18819;BME280;9537;45.594;9.294;2023-04-01T01:21:30;98511.22;;;9.43;73.67
18819;BME280;9537;45.594;9.294;2023-04-01T01:22:46;98507.63;;;9.51;73.05
18819;BME280;9537;45.594;9.294;2023-04-01T01:24:13;98508.88;;;9.55;73.37
18819;BME280;9537;45.594;9.294;2023-04-01T01:25:29;98505.84;;;9.58;73.61
18819;BME280;9537;45.594;9.294;2023-04-01T01:27:01;98505.59;;;9.53;74.87
18819;BME280;9537;45.594;9.294;2023-04-01T01:28:15;98502.97;;;9.53;74.86
18819;BME280;9537;45.594;9.294;2023-04-01T01:31:03;98507.88;;;9.56;75.12
18819;BME280;9537;45.594;9.294;2023-04-01T01:32:14;98504.47;;;9.62;75.50
18819;BME280;9537;45.594;9.294;2023-04-01T01:33:35;98504.66;;;9.67;75.21
18819;BME280;9537;45.594;9.294;2023-04-01T01:34:43;98514.22;;;9.68;75.44
18819;BME280;9537;45.594;9.294;2023-04-01T01:35:52;98508.75;;;9.69;75.44
18819;BME280;9537;45.594;9.294;2023-04-01T01:36:58;98504.31;;;9.70;75.76
18819;BME280;9537;45.594;9.294;2023-04-01T01:38:03;98513.03;;;9.70;75.83
18819;BME280;9537;45.594;9.294;2023-04-01T01:39:08;98504.09;;;9.72;73.92
18819;BME280;9537;45.594;9.294;2023-04-01T01:40:11;98499.19;;;9.62;72.27
18819;BME280;9537;45.594;9.294;2023-04-01T01:41:16;98500.34;;;9.53;71.13
18819;BME280;9537;45.594;9.294;2023-04-01T01:42:20;98502.53;;;9.49;71.45
18819;BME280;9537;45.594;9.294;2023-04-01T01:43:24;98501.91;;;9.47;71.57
18819;BME280;9537;45.594;9.294;2023-04-01T01:44:28;98503.34;;;9.50;71.39
18819;BME280;9537;45.594;9.294;2023-04-01T01:45:33;98509.81;;;9.47;71.74
18819;BME280;9537;45.594;9.294;2023-04-01T01:46:38;98507.19;;;9.47;71.67
18819;BME280;9537;45.594;9.294;2023-04-01T01:47:41;98508.41;;;9.44;72.16
18819;BME280;9537;45.594;9.294;2023-04-01T01:48:44;98508.22;;;9.46;72.17
18819;BME280;9537;45.594;9.294;2023-04-01T01:49:48;98519.81;;;9.52;72.85
18819;BME280;9537;45.594;9.294;2023-04-01T01:50:51;98514.53;;;9.52;72.78
18819;BME280;9537;45.594;9.294;2023-04-01T01:51:53;98509.47;;;9.50;73.62
18819;BME280;9537;45.594;9.294;2023-04-01T01:53:04;98506.44;;;9.53;73.04
18819;BME280;9537;45.594;9.294;2023-04-01T01:54:06;98503.81;;;9.53;73.13
18819;BME280;9537;45.594;9.294;2023-04-01T01:55:24;98512.91;;;9.51;73.22
18819;BME280;9537;45.594;9.294;2023-04-01T01:56:28;98520.19;;;9.48;72.67
18819;BME280;9537;45.594;9.294;2023-04-01T01:57:32;98506.84;;;9.50;72.80
18819;BME280;9537;45.594;9.294;2023-04-01T01:58:37;98514.69;;;9.43;71.53
18819;BME280;9537;45.594;9.294;2023-04-01T01:59:42;98515.66;;;9.36;71.28
18819;BME280;9537;45.594;9.294;2023-04-01T02:00:48;98513.97;;;9.28;70.98
18819;BME280;9537;45.594;9.294;2023-04-01T02:01:53;98517.56;;;9.20;71.29
18819;BME280;9537;45.594;9.294;2023-04-01T02:02:58;98512.06;;;9.15;71.81
18819;BME280;9537;45.594;9.294;2023-04-01T02:04:00;98515.53;;;9.16;71.94
18819;BME280;9537;45.594;9.294;2023-04-01T02:05:03;98513.06;;;9.14;72.45
18819;BME280;9537;45.594;9.294;2023-04-01T02:06:08;98504.53;;;9.12;72.34
18819;BME280;9537;45.594;9.294;2023-04-01T02:07:16;98504.09;;;9.09;72.82
18819;BME280;9537;45.594;9.294;2023-04-01T02:08:21;98506.94;;;9.07;72.92
18819;BME280;9537;45.594;9.294;2023-04-01T02:09:24;98501.28;;;9.10;72.45
18819;BME280;9537;45.594;9.294;2023-04-01T02:10:27;98504.53;;;9.12;72.91
18819;BME280;9537;45.594;9.294;2023-04-01T02:11:32;98496.84;;;9.11;74.56
18819;BME280;9537;45.594;9.294;2023-04-01T02:12:35;98502.91;;;9.11;75.99
18819;BME280;9537;45.594;9.294;2023-04-01T02:13:42;98503.28;;;9.08;76.60
18819;BME280;9537;45.594;9.294;2023-04-01T02:14:51;98507.13;;;9.06;74.86
18819;BME280;9537;45.594;9.294;2023-04-01T02:15:56;98511.84;;;8.89;74.16
18819;BME280;9537;45.594;9.294;2023-04-01T02:17:02;98508.78;;;8.85;73.51
18819;BME280;9537;45.594;9.294;2023-04-01T02:18:05;98507.13;;;8.84;73.68
18819;BME280;9537;45.594;9.294;2023-04-01T02:19:08;98504.66;;;8.76;73.54
18819;BME280;9537;45.594;9.294;2023-04-01T02:20:14;98500.59;;;8.73;73.34
18819;BME280;9537;45.594;9.294;2023-04-01T02:21:19;98508.47;;;8.73;74.37
18819;BME280;9537;45.594;9.294;2023-04-01T02:22:25;98506.28;;;8.77;74.78
18819;BME280;9537;45.594;9.294;2023-04-01T02:23:27;98506.72;;;8.80;76.10
18819;BME280;9537;45.594;9.294;2023-04-01T02:24:32;98501.66;;;8.79;75.63
18819;BME280;9537;45.594;9.294;2023-04-01T02:25:37;98508.09;;;8.76;75.31
18819;BME280;9537;45.594;9.294;2023-04-01T02:26:40;98508.78;;;8.85;75.53
18819;BME280;9537;45.594;9.294;2023-04-01T02:27:43;98509.22;;;8.89;73.72
18819;BME280;9537;45.594;9.294;2023-04-01T02:28:46;98501.88;;;8.84;74.13
18819;BME280;9537;45.594;9.294;2023-04-01T02:29:50;98513.25;;;8.85;73.76
18819;BME280;9537;45.594;9.294;2023-04-01T02:30:52;98520.94;;;8.86;73.52
18819;BME280;9537;45.594;9.294;2023-04-01T02:31:54;98521.56;;;8.88;73.45
18819;BME280;9537;45.594;9.294;2023-04-01T02:32:56;98514.06;;;8.85;72.68
18819;BME280;9537;45.594;9.294;2023-04-01T02:34:00;98511.97;;;8.80;72.40
18819;BME280;9537;45.594;9.294;2023-04-01T02:35:01;98519.06;;;8.80;73.13
18819;BME280;9537;45.594;9.294;2023-04-01T02:36:10;98511.81;;;8.82;73.56
18819;BME280;9537;45.594;9.294;2023-04-01T02:37:15;98516.69;;;8.85;73.81
18819;BME280;9537;45.594;9.294;2023-04-01T02:38:16;98528.47;;;8.89;74.21
18819;BME280;9537;45.594;9.294;2023-04-01T02:39:18;98524.00;;;8.90;74.32
18819;BME280;9537;45.594;9.294;2023-04-01T02:40:20;98535.53;;;8.89;73.82
18819;BME280;9537;45.594;9.294;2023-04-01T02:41:22;98533.94;;;8.88;74.09
18819;BME280;9537;45.594;9.294;2023-04-01T02:42:24;98525.44;;;8.92;74.15
18819;BME280;9537;45.594;9.294;2023-04-01T02:43:25;98529.34;;;8.96;74.60
18819;BME280;9537;45.594;9.294;2023-04-01T02:44:27;98529.59;;;9.01;74.67
18819;BME280;9537;45.594;9.294;2023-04-01T02:45:28;98524.75;;;9.05;74.79
18819;BME280;9537;45.594;9.294;2023-04-01T02:46:30;98518.28;;;9.08;74.45
18819;BME280;9537;45.594;9.294;2023-04-01T02:47:31;98527.00;;;9.08;74.64
18819;BME280;9537;45.594;9.294;2023-04-01T02:48:33;98520.53;;;9.11;74.62
18819;BME280;9537;45.594;9.294;2023-04-01T02:49:35;98528.88;;;9.14;74.74
18819;BME280;9537;45.594;9.294;2023-04-01T02:50:36;98532.94;;;9.17;75.13
18819;BME280;9537;45.594;9.294;2023-04-01T02:51:39;98535.75;;;9.15;74.65
18819;BME280;9537;45.594;9.294;2023-04-01T02:52:41;98538.59;;;9.14;74.06
18819;BME280;9537;45.594;9.294;2023-04-01T02:53:43;98548.72;;;9.10;73.81
18819;BME280;9537;45.594;9.294;2023-04-01T02:54:44;98542.59;;;9.10;73.06
18819;BME280;9537;45.594;9.294;2023-04-01T02:55:46;98542.75;;;9.01;72.39
18819;BME280;9537;45.594;9.294;2023-04-01T02:56:47;98546.19;;;9.02;70.98
18819;BME280;9537;45.594;9.294;2023-04-01T02:57:49;98546.75;;;8.97;71.78
18819;BME280;9537;45.594;9.294;2023-04-01T02:58:50;98539.06;;;8.96;71.98
18819;BME280;9537;45.594;9.294;2023-04-01T02:59:52;98538.22;;;8.95;72.71
18819;BME280;9537;45.594;9.294;2023-04-01T03:00:53;98544.72;;;8.93;73.54
18819;BME280;9537;45.594;9.294;2023-04-01T03:01:55;98543.88;;;8.92;73.66
18819;BME280;9537;45.594;9.294;2023-04-01T03:02:56;98545.91;;;8.90;72.68
18819;BME280;9537;45.594;9.294;2023-04-01T03:03:58;98543.66;;;8.87;72.33
18819;BME280;9537;45.594;9.294;2023-04-01T03:04:59;98542.59;;;8.82;72.78
18819;BME280;9537;45.594;9.294;2023-04-01T03:06:05;98539.50;;;8.78;72.79
18819;BME280;9537;45.594;9.294;2023-04-01T03:07:06;98536.00;;;8.71;72.73
18819;BME280;9537;45.594;9.294;2023-04-01T03:08:10;98545.47;;;8.65;72.65
18819;BME280;9537;45.594;9.294;2023-04-01T03:09:12;98537.72;;;8.64;72.75
18819;BME280;9537;45.594;9.294;2023-04-01T03:10:14;98537.94;;;8.62;72.66
18819;BME280;9537;45.594;9.294;2023-04-01T03:11:15;98538.19;;;8.67;73.50
18819;BME280;9537;45.594;9.294;2023-04-01T03:12:17;98533.53;;;8.69;73.84
18819;BME280;9537;45.594;9.294;2023-04-01T03:13:18;98539.44;;;8.71;73.83
18819;BME280;9537;45.594;9.294;2023-04-01T03:14:20;98536.63;;;8.73;74.51
18819;BME280;9537;45.594;9.294;2023-04-01T03:15:21;98534.34;;;8.70;74.96
18819;BME280;9537;45.594;9.294;2023-04-01T03:16:23;98535.38;;;8.69;76.08
18819;BME280;9537;45.594;9.294;2023-04-01T03:17:24;98543.09;;;8.70;75.66
18819;BME280;9537;45.594;9.294;2023-04-01T03:18:26;98543.25;;;8.69;75.46
18819;BME280;9537;45.594;9.294;2023-04-01T03:19:27;98546.16;;;8.74;74.82
18819;BME280;9537;45.594;9.294;2023-04-01T03:20:29;98552.66;;;8.78;74.73
18819;BME280;9537;45.594;9.294;2023-04-01T03:21:30;98547.38;;;8.78;74.41
18819;BME280;9537;45.594;9.294;2023-04-01T03:22:32;98551.41;;;8.74;73.30
18819;BME280;9537;45.594;9.294;2023-04-01T03:23:35;98549.72;;;8.66;72.83
18819;BME280;9537;45.594;9.294;2023-04-01T03:24:37;98549.28;;;8.63;73.74
18819;BME280;9537;45.594;9.294;2023-04-01T03:25:38;98551.53;;;8.66;73.79
18819;BME280;9537;45.594;9.294;2023-04-01T03:26:40;98551.16;;;8.69;73.74
18819;BME280;9537;45.594;9.294;2023-04-01T03:27:41;98556.41;;;8.69;73.95
18819;BME280;9537;45.594;9.294;2023-04-01T03:28:43;98557.88;;;8.71;74.28
18819;BME280;9537;45.594;9.294;2023-04-01T03:29:44;98554.44;;;8.71;73.97
18819;BME280;9537;45.594;9.294;2023-04-01T03:30:46;98548.91;;;8.66;72.75
18819;BME280;9537;45.594;9.294;2023-04-01T03:31:47;98548.22;;;8.57;72.17
18819;BME280;9537;45.594;9.294;2023-04-01T03:32:49;98549.41;;;8.54;72.40
18819;BME280;9537;45.594;9.294;2023-04-01T03:33:51;98556.66;;;8.52;72.42
18819;BME280;9537;45.594;9.294;2023-04-01T03:34:53;98551.38;;;8.52;73.27
18819;BME280;9537;45.594;9.294;2023-04-01T03:35:54;98560.50;;;8.50;73.14
18819;BME280;9537;45.594;9.294;2023-04-01T03:36:56;98566.38;;;8.52;72.06
18819;BME280;9537;45.594;9.294;2023-04-01T03:37:58;98564.09;;;8.49;72.21
18819;BME280;9537;45.594;9.294;2023-04-01T03:39:00;98574.84;;;8.47;73.16
18819;BME280;9537;45.594;9.294;2023-04-01T03:40:05;98576.19;;;8.43;73.62
18819;BME280;9537;45.594;9.294;2023-04-01T03:41:06;98575.56;;;8.41;74.21
18819;BME280;9537;45.594;9.294;2023-04-01T03:42:08;98584.00;;;8.37;73.85
18819;BME280;9537;45.594;9.294;2023-04-01T03:43:09;98582.53;;;8.34;73.87
18819;BME280;9537;45.594;9.294;2023-04-01T03:44:12;98577.81;;;8.29;73.81
18819;BME280;9537;45.594;9.294;2023-04-01T03:45:13;98580.66;;;8.28;73.75
18819;BME280;9537;45.594;9.294;2023-04-01T03:46:17;98577.38;;;8.26;73.36
18819;BME280;9537;45.594;9.294;2023-04-01T03:47:18;98576.94;;;8.22;72.93
18819;BME280;9537;45.594;9.294;2023-04-01T03:48:20;98584.56;;;8.17;73.79
18819;BME280;9537;45.594;9.294;2023-04-01T03:49:21;98583.91;;;8.15;74.19
18819;BME280;9537;45.594;9.294;2023-04-01T03:50:23;98589.38;;;8.13;74.11
18819;BME280;9537;45.594;9.294;2023-04-01T03:51:24;98579.66;;;8.14;73.69
18819;BME280;9537;45.594;9.294;2023-04-01T03:52:26;98583.31;;;8.13;74.21
18819;BME280;9537;45.594;9.294;2023-04-01T03:53:27;98576.41;;;8.12;74.17
18819;BME280;9537;45.594;9.294;2023-04-01T03:54:30;98577.03;;;8.14;74.27
18819;BME280;9537;45.594;9.294;2023-04-01T03:55:32;98570.75;;;8.15;74.93
18819;BME280;9537;45.594;9.294;2023-04-01T03:56:34;98572.84;;;8.20;74.66
18819;BME280;9537;45.594;9.294;2023-04-01T03:57:35;98574.03;;;8.17;74.02
18819;BME280;9537;45.594;9.294;2023-04-01T03:58:38;98573.75;;;8.12;73.85
18819;BME280;9537;45.594;9.294;2023-04-01T03:59:39;98566.88;;;8.11;73.41
18819;BME280;9537;45.594;9.294;2023-04-01T04:00:41;98563.16;;;8.05;73.20
18819;BME280;9537;45.594;9.294;2023-04-01T04:01:42;98561.34;;;8.06;73.70
18819;BME280;9537;45.594;9.294;2023-04-01T04:02:47;98564.91;;;8.13;74.12
18819;BME280;9537;45.594;9.294;2023-04-01T04:03:48;98564.53;;;8.16;72.90
18819;BME280;9537;45.594;9.294;2023-04-01T04:04:50;98562.44;;;8.11;72.73
18819;BME280;9537;45.594;9.294;2023-04-01T04:05:51;98563.81;;;8.07;71.45
18819;BME280;9537;45.594;9.294;2023-04-01T04:06:53;98564.34;;;8.03;71.99
18819;BME280;9537;45.594;9.294;2023-04-01T04:07:56;98564.56;;;8.01;71.63
18819;BME280;9537;45.594;9.294;2023-04-01T04:08:57;98569.19;;;7.84;71.29
18819;BME280;9537;45.594;9.294;2023-04-01T04:10:00;98567.38;;;7.85;71.15
18819;BME280;9537;45.594;9.294;2023-04-01T04:11:01;98571.63;;;7.86;71.38
18819;BME280;9537;45.594;9.294;2023-04-01T04:12:04;98575.41;;;7.83;71.03
18819;BME280;9537;45.594;9.294;2023-04-01T04:13:06;98571.09;;;7.76;70.38
18819;BME280;9537;45.594;9.294;2023-04-01T04:14:08;98575.88;;;7.72;70.79
18819;BME280;9537;45.594;9.294;2023-04-01T04:15:10;98569.34;;;7.68;71.39
18819;BME280;9537;45.594;9.294;2023-04-01T04:16:12;98570.69;;;7.64;72.40
18819;BME280;9537;45.594;9.294;2023-04-01T04:17:14;98567.09;;;7.65;71.69
18819;BME280;9537;45.594;9.294;2023-04-01T04:18:16;98571.34;;;7.66;71.84
18819;BME280;9537;45.594;9.294;2023-04-01T04:19:17;98559.38;;;7.78;71.51
18819;BME280;9537;45.594;9.294;2023-04-01T04:20:19;98569.25;;;7.76;70.67
18819;BME280;9537;45.594;9.294;2023-04-01T04:21:20;98560.09;;;7.72;70.22
18819;BME280;9537;45.594;9.294;2023-04-01T04:22:22;98556.56;;;7.65;71.08
18819;BME280;9537;45.594;9.294;2023-04-01T04:23:23;98559.72;;;7.60;71.68
18819;BME280;9537;45.594;9.294;2023-04-01T04:24:25;98563.00;;;7.62;71.97
18819;BME280;9537;45.594;9.294;2023-04-01T04:25:29;98567.63;;;7.60;71.99
18819;BME280;9537;45.594;9.294;2023-04-01T04:26:31;98572.41;;;7.57;72.14
18819;BME280;9537;45.594;9.294;2023-04-01T04:27:33;98570.59;;;7.57;71.74
18819;BME280;9537;45.594;9.294;2023-04-01T04:28:35;98576.50;;;7.59;72.24
18819;BME280;9537;45.594;9.294;2023-04-01T04:29:36;98568.63;;;7.59;73.72
18819;BME280;9537;45.594;9.294;2023-04-01T04:30:38;98570.69;;;7.64;73.35
18819;BME280;9537;45.594;9.294;2023-04-01T04:31:39;98563.28;;;7.67;74.20
18819;BME280;9537;45.594;9.294;2023-04-01T04:32:41;98583.31;;;7.68;74.10
18819;BME280;9537;45.594;9.294;2023-04-01T04:33:42;98578.50;;;7.72;74.81
18819;BME280;9537;45.594;9.294;2023-04-01T04:34:44;98581.22;;;7.79;74.37
18819;BME280;9537;45.594;9.294;2023-04-01T04:35:45;98578.84;;;7.84;74.53
18819;BME280;9537;45.594;9.294;2023-04-01T04:36:47;98586.56;;;7.85;74.17
18819;BME280;9537;45.594;9.294;2023-04-01T04:37:48;98582.50;;;7.83;73.58
18819;BME280;9537;45.594;9.294;2023-04-01T04:38:50;98579.94;;;7.75;71.14
18819;BME280;9537;45.594;9.294;2023-04-01T04:39:51;98590.81;;;7.72;70.01
18819;BME280;9537;45.594;9.294;2023-04-01T04:40:55;98586.66;;;7.62;70.37
18819;BME280;9537;45.594;9.294;2023-04-01T04:41:56;98587.09;;;7.51;71.13
18819;BME280;9537;45.594;9.294;2023-04-01T04:42:58;98589.44;;;7.46;71.17
18819;BME280;9537;45.594;9.294;2023-04-01T04:43:58;98597.31;;;7.46;71.70
18819;BME280;9537;45.594;9.294;2023-04-01T04:45:00;98589.16;;;7.41;73.00
18819;BME280;9537;45.594;9.294;2023-04-01T04:46:04;98597.03;;;7.41;73.53
18819;BME280;9537;45.594;9.294;2023-04-01T04:47:06;98589.34;;;7.39;72.44
18819;BME280;9537;45.594;9.294;2023-04-01T04:48:07;98588.69;;;7.37;72.84
18819;BME280;9537;45.594;9.294;2023-04-01T04:49:10;98591.50;;;7.36;73.80
18819;BME280;9537;45.594;9.294;2023-04-01T04:50:12;98589.50;;;7.38;73.21
18819;BME280;9537;45.594;9.294;2023-04-01T04:51:14;98579.66;;;7.40;74.20
18819;BME280;9537;45.594;9.294;2023-04-01T04:52:17;98584.19;;;7.46;73.74
18819;BME280;9537;45.594;9.294;2023-04-01T04:53:18;98575.13;;;7.49;73.00
18819;BME280;9537;45.594;9.294;2023-04-01T04:54:20;98579.56;;;7.48;71.90
18819;BME280;9537;45.594;9.294;2023-04-01T04:55:21;98571.97;;;7.38;71.77
18819;BME280;9537;45.594;9.294;2023-04-01T04:56:25;98569.22;;;7.32;71.90
18819;BME280;9537;45.594;9.294;2023-04-01T04:57:26;98568.31;;;7.25;72.25
18819;BME280;9537;45.594;9.294;2023-04-01T04:58:28;98567.13;;;7.27;72.50
18819;BME280;9537;45.594;9.294;2023-04-01T04:59:30;98565.41;;;7.34;71.89
18819;BME280;9537;45.594;9.294;2023-04-01T05:00:32;98573.50;;;7.33;71.42
18819;BME280;9537;45.594;9.294;2023-04-01T05:01:33;98581.16;;;7.34;70.81
18819;BME280;9537;45.594;9.294;2023-04-01T05:02:35;98576.69;;;7.20;71.19
18819;BME280;9537;45.594;9.294;2023-04-01T05:03:37;98575.78;;;7.13;71.43
18819;BME280;9537;45.594;9.294;2023-04-01T05:04:39;98586.09;;;7.14;71.38
18819;BME280;9537;45.594;9.294;2023-04-01T05:05:48;98582.81;;;7.12;71.41
18819;BME280;9537;45.594;9.294;2023-04-01T05:06:50;98587.28;;;7.12;72.38
18819;BME280;9537;45.594;9.294;2023-04-01T05:07:52;98581.41;;;7.10;72.83
18819;BME280;9537;45.594;9.294;2023-04-01T05:08:54;98587.81;;;7.07;73.24
18819;BME280;9537;45.594;9.294;2023-04-01T05:09:55;98592.22;;;7.07;73.77
18819;BME280;9537;45.594;9.294;2023-04-01T05:10:57;98585.91;;;7.01;73.62
18819;BME280;9537;45.594;9.294;2023-04-01T05:11:59;98596.56;;;6.99;73.95
18819;BME280;9537;45.594;9.294;2023-04-01T05:13:01;98587.53;;;7.02;73.77
18819;BME280;9537;45.594;9.294;2023-04-01T05:14:02;98591.41;;;7.06;74.72
18819;BME280;9537;45.594;9.294;2023-04-01T05:15:05;98596.16;;;7.11;75.26
18819;BME280;9537;45.594;9.294;2023-04-01T05:16:08;98585.66;;;7.11;75.02
18819;BME280;9537;45.594;9.294;2023-04-01T05:17:11;98595.44;;;7.17;74.85
18819;BME280;9537;45.594;9.294;2023-04-01T05:18:12;98601.22;;;7.12;73.94
18819;BME280;9537;45.594;9.294;2023-04-01T05:19:14;98597.16;;;7.10;72.97
18819;BME280;9537;45.594;9.294;2023-04-01T05:20:15;98592.34;;;7.13;72.59
18819;BME280;9537;45.594;9.294;2023-04-01T05:21:17;98588.72;;;7.14;73.56
18819;BME280;9537;45.594;9.294;2023-04-01T05:22:18;98583.31;;;7.16;74.03
18819;BME280;9537;45.594;9.294;2023-04-01T05:23:21;98583.13;;;7.17;74.49
18819;BME280;9537;45.594;9.294;2023-04-01T05:24:23;98580.94;;;7.21;75.18
18819;BME280;9537;45.594;9.294;2023-04-01T05:25:25;98576.53;;;7.21;74.91
18819;BME280;9537;45.594;9.294;2023-04-01T05:26:26;98579.63;;;7.25;74.64
18819;BME280;9537;45.594;9.294;2023-04-01T05:27:30;98585.22;;;7.22;75.00
18819;BME280;9537;45.594;9.294;2023-04-01T05:28:31;98586.84;;;7.23;74.66
18819;BME280;9537;45.594;9.294;2023-04-01T05:29:33;98593.28;;;7.20;74.80
18819;BME280;9537;45.594;9.294;2023-04-01T05:30:35;98590.94;;;7.26;74.96
18819;BME280;9537;45.594;9.294;2023-04-01T05:31:37;98588.59;;;7.31;74.67
18819;BME280;9537;45.594;9.294;2023-04-01T05:32:38;98589.25;;;7.33;75.24
18819;BME280;9537;45.594;9.294;2023-04-01T05:33:40;98594.94;;;7.36;74.62
18819;BME280;9537;45.594;9.294;2023-04-01T05:34:41;98599.19;;;7.37;74.20
18819;BME280;9537;45.594;9.294;2023-04-01T05:35:43;98598.56;;;7.35;74.25
18819;BME280;9537;45.594;9.294;2023-04-01T05:36:44;98590.06;;;7.33;73.83
18819;BME280;9537;45.594;9.294;2023-04-01T05:37:47;98599.09;;;7.31;74.44
18819;BME280;9537;45.594;9.294;2023-04-01T05:38:48;98608.44;;;7.33;74.49
18819;BME280;9537;45.594;9.294;2023-04-01T05:39:51;98602.38;;;7.33;75.15
18819;BME280;9537;45.594;9.294;2023-04-01T05:40:58;98607.28;;;7.36;76.04
18819;BME280;9537;45.594;9.294;2023-04-01T05:42:00;98610.53;;;7.38;75.56
18819;BME280;9537;45.594;9.294;2023-04-01T05:43:02;98606.56;;;7.42;75.03
18819;BME280;9537;45.594;9.294;2023-04-01T05:44:05;98609.00;;;7.43;73.85
18819;BME280;9537;45.594;9.294;2023-04-01T05:45:07;98599.19;;;7.37;73.59
18819;BME280;9537;45.594;9.294;2023-04-01T05:46:09;98602.03;;;7.36;73.21
18819;BME280;9537;45.594;9.294;2023-04-01T05:47:10;98606.97;;;7.31;73.68
18819;BME280;9537;45.594;9.294;2023-04-01T05:48:12;98603.66;;;7.37;73.01